General Aviation Weather

Text Reports

Enter one or more of the following location identifiers separated by a space:

Zip Code, Four-Character ICAO or Three-Character IATA airport codes.

METAR - Aviation Routine Weather Report
KFZY - Fulton, New York
Updated at 7:54 AM GMT on April 19, 2015 (3:54 AM EDT):
METAR KFZY 190754Z AUTO 03006KT 10SM CLR 04/M02 A3023 RMK AO2 SLP238 T00391022
TAF - Terminal Area Forecast
KFZY - Fulton, New York
Updated at 7:54 AM GMT on April 19, 2015 (3:54 AM EDT):
No TAF is currently available for this location.
Decoded:
No decoded TAF is available.
PIREP - Pilot Weather Report
KFZY - Fulton, New York
Updated at 7:54 AM GMT on April 19, 2015 (3:54 AM EDT):
No PIREP is currently available for this location.
AIRMET - Airmens Meteorological Information
KFZY - Fulton, New York
Updated at 7:54 AM GMT on April 19, 2015 (3:54 AM EDT):
No AIRMET is currently available for this location.
SIGMET - Significant Meteorological Information
KFZY - Fulton, New York
Updated at 7:54 AM GMT on April 19, 2015 (3:54 AM EDT):
No SIGMET is currently available for this location.
NOTAM - Notice to Airmen
KFZY - Fulton, New York
Updated at 7:54 AM GMT on April 19, 2015 (3:54 AM EDT):
No NOTAM is currently available for this location.
Forecast Area
KFZY - Fulton, New York
Updated at 7:54 AM GMT on April 19, 2015 (3:54 AM EDT):
No NOTAM is currently available for this location.
Aviation Weather Maps